Time;durP1;ratioP1;P1;durP2;ratioP2;P2;SDS_P1;SDS_P2;PMS_P1;PMS_P2;Temp;Humidity;BMP_temperature;BMP_pressure;BME280_temperature;BME280_humidity;BME280_pressure;Samples;Min_cycle;Max_cycle;Signal;HPM_P1;HPM_P2
2023/03/15 00:00:44;;;;;;;5.17;0.87;;;3.30;99.90;;;;;;5095659;28;20168;-56
2023/03/15 00:03:11;;;;;;;4.13;1.10;;;3.30;99.90;;;;;;5094964;28;20223;-57
2023/03/15 00:05:40;;;;;;;1.53;0.70;;;3.20;99.90;;;;;;5095413;28;20211;-57
2023/03/15 00:08:05;;;;;;;2.93;0.80;;;3.20;99.90;;;;;;5094341;28;20178;-56
2023/03/15 00:10:32;;;;;;;2.07;1.00;;;3.20;99.90;;;;;;5110220;28;20176;-58
2023/03/15 00:12:58;;;;;;;6.63;0.90;;;3.20;99.90;;;;;;5093401;28;20160;-58
2023/03/15 00:15:23;;;;;;;2.07;0.80;;;3.10;99.90;;;;;;5094667;28;20168;-57
2023/03/15 00:17:49;;;;;;;3.40;1.10;;;3.20;99.90;;;;;;5094902;28;20167;-58
2023/03/15 00:20:14;;;;;;;2.37;0.80;;;3.10;99.90;;;;;;5094552;28;20291;-58
2023/03/15 00:22:41;;;;;;;6.20;0.97;;;3.20;99.90;;;;;;5088323;28;20582;-58
2023/03/15 00:25:07;;;;;;;2.83;1.00;;;3.20;99.90;;;;;;5095624;28;20260;-58
2023/03/15 00:27:33;;;;;;;4.90;0.77;;;3.20;99.90;;;;;;5115253;28;20167;-57
2023/03/15 00:29:58;;;;;;;7.97;1.33;;;3.20;99.90;;;;;;5115071;28;20507;-57
2023/03/15 00:32:24;;;;;;;5.77;1.00;;;3.10;99.90;;;;;;5097837;28;20174;-58
2023/03/15 00:34:53;;;;;;;3.93;1.17;;;3.00;99.90;;;;;;5097584;28;20446;-58
2023/03/15 00:37:19;;;;;;;3.53;1.10;;;3.00;99.90;;;;;;5097587;28;20221;-58
2023/03/15 00:39:46;;;;;;;4.23;1.00;;;3.00;99.90;;;;;;5115835;28;20174;-56
2023/03/15 00:42:14;;;;;;;3.53;1.07;;;3.10;99.90;;;;;;5100997;28;20182;-58
2023/03/15 00:44:41;;;;;;;3.67;0.83;;;3.00;99.90;;;;;;5119116;28;20206;-58
2023/03/15 00:47:08;;;;;;;4.67;0.97;;;3.10;99.90;;;;;;5101192;28;20176;-56
2023/03/15 00:49:34;;;;;;;5.17;1.07;;;3.00;99.90;;;;;;5117653;28;20167;-56
2023/03/15 00:51:59;;;;;;;7.93;1.00;;;3.00;99.90;;;;;;5117780;28;20340;-57
2023/03/15 00:54:25;;;;;;;8.40;1.10;;;3.00;99.90;;;;;;5098874;28;20235;-55
2023/03/15 00:56:50;;;;;;;5.83;1.13;;;3.00;99.90;;;;;;5099504;28;20163;-58
2023/03/15 00:59:15;;;;;;;4.50;1.20;;;3.00;99.90;;;;;;5099784;28;20243;-58
2023/03/15 01:01:43;;;;;;;4.67;1.13;;;2.90;99.90;;;;;;5099322;28;20168;-58
2023/03/15 01:04:10;;;;;;;3.77;1.00;;;3.00;99.90;;;;;;5099371;28;20250;-58
2023/03/15 01:06:36;;;;;;;3.50;1.07;;;3.00;99.90;;;;;;5098941;28;20707;-57
2023/03/15 01:09:03;;;;;;;5.37;0.93;;;3.00;99.90;;;;;;5117442;28;20168;-58
2023/03/15 01:11:28;;;;;;;2.47;1.07;;;3.00;99.90;;;;;;5101920;28;20167;-55
2023/03/15 01:13:58;;;;;;;5.53;1.27;;;2.90;99.90;;;;;;5101756;28;20460;-58
2023/03/15 01:16:25;;;;;;;1.43;0.97;;;2.90;99.90;;;;;;5101572;28;20167;-59
2023/03/15 01:18:51;;;;;;;5.53;1.43;;;2.90;99.90;;;;;;5101034;28;20176;-58
2023/03/15 01:21:17;;;;;;;3.93;1.40;;;2.90;99.90;;;;;;5118128;28;20183;-58
2023/03/15 01:23:42;;;;;;;2.97;1.40;;;2.90;99.90;;;;;;5118013;28;20276;-58
2023/03/15 01:26:11;;;;;;;1.80;1.10;;;2.90;99.90;;;;;;5118259;28;20186;-56
2023/03/15 01:28:36;;;;;;;4.63;1.30;;;2.90;99.90;;;;;;5100583;28;20171;-58
2023/03/15 01:31:02;;;;;;;6.03;1.40;;;2.90;99.90;;;;;;5100241;28;20167;-58
2023/03/15 01:33:28;;;;;;;3.97;1.47;;;2.80;99.90;;;;;;5100935;28;20463;-58
2023/03/15 01:35:59;;;;;;;4.20;1.30;;;2.80;99.90;;;;;;5118006;28;20164;-57
2023/03/15 01:38:25;;;;;;;5.53;1.10;;;2.80;99.90;;;;;;5101186;28;20167;-58
2023/03/15 01:40:50;;;;;;;5.30;1.30;;;2.80;99.90;;;;;;5101617;28;20216;-58
2023/03/15 01:43:16;;;;;;;1.57;0.93;;;2.80;99.90;;;;;;5118491;28;20174;-55
2023/03/15 01:46:22;;;;;;;7.40;1.33;;;2.80;99.90;;;;;;5101041;28;20268;-57
2023/03/15 01:49:16;;;;;;;3.20;1.00;;;2.80;99.90;;;;;;5091701;28;20574;-56
2023/03/15 01:51:49;;;;;;;9.17;1.30;;;2.80;99.90;;;;;;5118396;28;20503;-57
2023/03/15 01:54:19;;;;;;;3.80;1.30;;;2.80;99.90;;;;;;5099882;28;20625;-57
2023/03/15 01:56:58;;;;;;;6.13;1.40;;;2.70;99.90;;;;;;5099835;28;20170;-56
2023/03/15 01:59:29;;;;;;;3.57;1.80;;;2.80;99.90;;;;;;5101214;28;20269;-58
2023/03/15 02:01:55;;;;;;;3.40;1.83;;;2.70;99.90;;;;;;5117675;28;20262;-58
2023/03/15 02:04:27;;;;;;;3.77;1.80;;;2.70;99.90;;;;;;5099600;28;20226;-56
2023/03/15 02:06:58;;;;;;;4.33;2.20;;;2.70;99.90;;;;;;5098864;28;20260;-54
2023/03/15 02:09:31;;;;;;;4.40;1.90;;;2.70;99.90;;;;;;5098858;28;20179;-58
2023/03/15 02:11:57;;;;;;;3.67;1.87;;;2.70;99.90;;;;;;5099278;28;20175;-58
2023/03/15 02:14:23;;;;;;;4.53;2.00;;;2.70;99.90;;;;;;5099075;28;20252;-55
2023/03/15 02:16:48;;;;;;;4.17;2.23;;;2.80;99.90;;;;;;5098196;28;20174;-56
2023/03/15 02:19:45;;;;;;;5.10;2.00;;;2.80;99.90;;;;;;5099578;28;20175;-58
2023/03/15 02:22:13;;;;;;;5.80;2.03;;;2.80;99.90;;;;;;5100019;28;20195;-59
2023/03/15 02:25:05;;;;;;;5.00;1.90;;;2.80;99.90;;;;;;5099949;28;20199;-59
2023/03/15 02:27:33;;;;;;;3.70;1.47;;;2.80;99.90;;;;;;5118998;28;20167;-59
2023/03/15 02:30:02;;;;;;;2.73;2.00;;;2.80;99.90;;;;;;5118655;28;20159;-58
2023/03/15 02:32:29;;;;;;;3.13;1.70;;;2.70;99.90;;;;;;5119038;28;20539;-59
2023/03/15 02:34:55;;;;;;;3.57;1.90;;;2.70;99.90;;;;;;5101631;28;20198;-59
2023/03/15 02:37:20;;;;;;;3.97;2.33;;;2.80;99.90;;;;;;5100847;28;20179;-59
2023/03/15 02:39:46;;;;;;;7.00;2.50;;;2.70;99.90;;;;;;5118398;28;20436;-59
2023/03/15 02:42:12;;;;;;;2.67;1.80;;;2.70;99.90;;;;;;5101246;28;20177;-60
2023/03/15 02:44:41;;;;;;;4.20;1.87;;;2.80;99.90;;;;;;5101154;28;20195;-59
2023/03/15 02:47:15;;;;;;;3.47;1.60;;;2.80;99.90;;;;;;5101207;28;20193;-58
2023/03/15 02:49:43;;;;;;;1.80;1.70;;;2.80;99.90;;;;;;5118513;28;20178;-58
2023/03/15 02:52:11;;;;;;;6.23;2.13;;;2.70;99.90;;;;;;5118508;28;20252;-59
2023/03/15 02:54:38;;;;;;;4.00;2.47;;;2.70;99.90;;;;;;5099574;28;20378;-59
2023/03/15 02:57:03;;;;;;;4.90;1.60;;;2.80;99.90;;;;;;5100518;28;20176;-59
2023/03/15 02:59:29;;;;;;;3.57;1.73;;;2.70;99.90;;;;;;5116670;28;20325;-58
2023/03/15 03:01:55;;;;;;;3.57;2.17;;;2.70;99.90;;;;;;5098203;28;20168;-59
2023/03/15 03:04:21;;;;;;;2.70;2.00;;;2.70;99.90;;;;;;5114228;28;20227;-58
2023/03/15 03:06:46;;;;;;;1.97;1.60;;;2.70;99.90;;;;;;5097165;28;20167;-57
2023/03/15 03:09:12;;;;;;;3.87;1.60;;;2.70;99.90;;;;;;5116301;28;20658;-59
2023/03/15 03:11:37;;;;;;;3.00;2.00;;;2.70;99.90;;;;;;5098489;28;20195;-58
2023/03/15 03:14:04;;;;;;;3.57;1.97;;;2.70;99.90;;;;;;5098870;28;20175;-55
2023/03/15 03:16:31;;;;;;;5.77;2.37;;;2.70;99.90;;;;;;5099142;28;20191;-59
2023/03/15 03:18:57;;;;;;;4.93;2.17;;;2.70;99.90;;;;;;5100657;28;20194;-57
2023/03/15 03:21:22;;;;;;;2.60;1.90;;;2.70;99.90;;;;;;5118104;28;20179;-55
2023/03/15 03:23:48;;;;;;;1.87;1.77;;;2.70;99.90;;;;;;5114943;28;20203;-58
2023/03/15 03:26:16;;;;;;;2.97;1.80;;;2.70;99.90;;;;;;5100259;28;20309;-59
2023/03/15 03:28:45;;;;;;;3.13;2.07;;;2.70;99.90;;;;;;5099917;28;20171;-59
2023/03/15 03:31:25;;;;;;;4.00;2.03;;;2.70;99.90;;;;;;5117627;28;20168;-58
2023/03/15 03:33:51;;;;;;;3.57;1.93;;;2.70;99.90;;;;;;5099327;28;20178;-59
2023/03/15 03:36:17;;;;;;;2.83;1.63;;;2.70;99.90;;;;;;5099859;28;20547;-60
2023/03/15 03:38:45;;;;;;;4.43;1.90;;;2.70;99.90;;;;;;5099935;28;20182;-57
2023/03/15 03:41:16;;;;;;;2.93;2.43;;;2.70;99.90;;;;;;5116481;28;20187;-59
2023/03/15 03:43:42;;;;;;;3.47;1.87;;;2.70;99.90;;;;;;5100223;28;20171;-59
2023/03/15 03:46:08;;;;;;;8.43;2.00;;;2.60;99.90;;;;;;5117961;28;20175;-59
2023/03/15 03:48:33;;;;;;;2.40;1.80;;;2.60;99.90;;;;;;5100192;28;20244;-57
2023/03/15 03:50:59;;;;;;;2.47;2.03;;;2.60;99.90;;;;;;5117544;28;20229;-59
2023/03/15 03:53:25;;;;;;;2.63;1.87;;;2.50;99.90;;;;;;5117459;28;20164;-59
2023/03/15 03:55:51;;;;;;;2.67;2.33;;;2.50;99.90;;;;;;5099606;28;20172;-59
2023/03/15 03:58:17;;;;;;;2.73;2.00;;;2.50;99.90;;;;;;5099826;28;20272;-59
2023/03/15 04:00:43;;;;;;;5.97;2.37;;;2.50;99.90;;;;;;5099603;28;20171;-58
2023/03/15 04:03:09;;;;;;;2.57;1.40;;;2.50;99.90;;;;;;5099481;28;20277;-58
2023/03/15 04:05:35;;;;;;;2.33;1.30;;;2.40;99.90;;;;;;5116242;28;20298;-58
2023/03/15 04:08:00;;;;;;;1.17;1.03;;;2.40;99.90;;;;;;5099348;28;20210;-57
2023/03/15 04:10:26;;;;;;;2.80;1.20;;;2.40;99.90;;;;;;5116773;28;20178;-59
2023/03/15 04:12:55;;;;;;;1.37;1.10;;;2.40;99.90;;;;;;5116915;28;20171;-58
2023/03/15 04:15:22;;;;;;;3.13;1.00;;;2.40;99.90;;;;;;5099733;28;20182;-58
2023/03/15 04:17:54;;;;;;;1.03;0.93;;;2.40;99.90;;;;;;5099345;28;20562;-58
2023/03/15 04:20:21;;;;;;;2.40;1.13;;;2.40;99.90;;;;;;5099337;28;20185;-59
2023/03/15 04:22:48;;;;;;;3.03;1.10;;;2.30;99.90;;;;;;5098497;28;20172;-58
2023/03/15 04:25:25;;;;;;;1.10;0.87;;;2.30;99.90;;;;;;5098554;28;20605;-58
2023/03/15 04:27:57;;;;;;;1.00;0.90;;;2.30;99.90;;;;;;5098751;28;20167;-59
2023/03/15 04:30:27;;;;;;;3.20;1.27;;;2.40;99.90;;;;;;5098175;28;20163;-58
2023/03/15 04:33:02;;;;;;;2.60;0.97;;;2.40;99.90;;;;;;5114684;28;20175;-59
2023/03/15 04:35:29;;;;;;;1.20;1.00;;;2.40;99.90;;;;;;5097672;28;20716;-59
2023/03/15 04:37:56;;;;;;;2.20;1.17;;;2.40;99.90;;;;;;5097428;28;20562;-58
2023/03/15 04:40:28;;;;;;;2.70;1.07;;;2.40;99.90;;;;;;5114921;28;20168;-59
2023/03/15 04:42:54;;;;;;;3.57;1.03;;;2.40;99.90;;;;;;5097320;28;20171;-57
2023/03/15 04:45:23;;;;;;;2.70;1.23;;;2.40;99.90;;;;;;5115470;28;20282;-56
2023/03/15 04:47:49;;;;;;;2.27;1.10;;;2.30;99.90;;;;;;5098089;28;20568;-58
2023/03/15 04:50:16;;;;;;;1.53;1.27;;;2.20;99.90;;;;;;5098581;28;20174;-58
2023/03/15 04:52:41;;;;;;;1.80;1.20;;;2.20;99.90;;;;;;5098508;28;20168;-57
2023/03/15 04:55:08;;;;;;;4.60;1.60;;;2.20;99.90;;;;;;5098594;28;20175;-59
2023/03/15 04:57:33;;;;;;;2.30;1.70;;;2.20;99.90;;;;;;5116258;28;20175;-59
2023/03/15 04:59:59;;;;;;;3.97;2.50;;;2.20;99.90;;;;;;5116179;28;20262;-57
2023/03/15 05:02:24;;;;;;;3.27;2.60;;;2.10;99.90;;;;;;5095923;28;20172;-59
2023/03/15 05:04:50;;;;;;;3.50;2.80;;;2.10;99.90;;;;;;5116053;28;20198;-59
2023/03/15 05:07:15;;;;;;;3.30;2.60;;;2.10;99.90;;;;;;5097900;28;20179;-57
2023/03/15 05:09:41;;;;;;;6.07;3.60;;;2.10;99.90;;;;;;5098168;28;20273;-58
2023/03/15 05:12:06;;;;;;;7.30;4.53;;;2.10;99.90;;;;;;5115382;28;20164;-58
2023/03/15 05:14:33;;;;;;;5.57;4.20;;;2.10;99.90;;;;;;5114536;28;20178;-58
2023/03/15 05:17:01;;;;;;;10.20;5.10;;;2.20;99.90;;;;;;5096039;28;20191;-58
2023/03/15 05:19:26;;;;;;;7.87;5.17;;;2.20;99.90;;;;;;5096146;28;20179;-59
2023/03/15 05:21:53;;;;;;;8.90;5.37;;;2.20;99.90;;;;;;5113840;28;20163;-61
2023/03/15 05:24:19;;;;;;;8.87;5.77;;;2.20;99.90;;;;;;5096052;28;20210;-59
2023/03/15 05:26:45;;;;;;;12.97;6.30;;;2.20;99.90;;;;;;5113690;28;20172;-56
2023/03/15 05:29:12;;;;;;;7.17;5.37;;;2.20;99.90;;;;;;5099512;28;20163;-57
2023/03/15 05:31:37;;;;;;;9.50;5.80;;;2.20;99.90;;;;;;5101182;28;20171;-58
2023/03/15 05:34:03;;;;;;;7.00;5.97;;;2.20;99.90;;;;;;5118092;28;20179;-59
2023/03/15 05:36:30;;;;;;;9.40;5.97;;;2.20;99.90;;;;;;5100240;28;20182;-59
2023/03/15 05:38:56;;;;;;;8.33;5.77;;;2.30;99.90;;;;;;5100647;28;20198;-58
2023/03/15 05:41:22;;;;;;;10.20;5.93;;;2.20;99.90;;;;;;5100866;28;20252;-58
2023/03/15 05:43:48;;;;;;;10.67;6.00;;;2.20;99.90;;;;;;5100469;28;20178;-58
2023/03/15 05:46:14;;;;;;;9.83;5.30;;;2.20;99.90;;;;;;5100176;28;20167;-57
2023/03/15 05:48:40;;;;;;;8.63;6.17;;;2.10;99.90;;;;;;5100918;28;20167;-59
2023/03/15 05:51:05;;;;;;;7.87;5.50;;;2.20;99.90;;;;;;5099655;28;20164;-59
2023/03/15 05:53:31;;;;;;;6.10;4.63;;;2.00;99.90;;;;;;5115939;28;20275;-59
2023/03/15 05:55:56;;;;;;;7.97;4.80;;;2.10;99.90;;;;;;5097190;28;20232;-59
2023/03/15 05:58:22;;;;;;;10.87;4.40;;;2.10;99.90;;;;;;5095698;28;20171;-59
2023/03/15 06:00:48;;;;;;;7.70;4.30;;;2.10;99.90;;;;;;5097089;28;20289;-58
2023/03/15 06:03:15;;;;;;;9.83;4.67;;;2.10;99.90;;;;;;5095760;28;20246;-57
2023/03/15 06:05:41;;;;;;;6.27;4.20;;;2.10;99.90;;;;;;5096430;28;20210;-59
2023/03/15 06:08:06;;;;;;;8.23;4.50;;;2.10;99.90;;;;;;5113088;28;20169;-57
2023/03/15 06:10:32;;;;;;;6.73;4.20;;;2.20;99.90;;;;;;5114158;28;20199;-59
2023/03/15 06:12:58;;;;;;;4.30;3.63;;;2.20;99.90;;;;;;5115028;28;20261;-58
2023/03/15 06:15:24;;;;;;;7.57;4.20;;;2.10;99.90;;;;;;5097500;28;20174;-60
2023/03/15 06:17:50;;;;;;;8.07;4.27;;;2.10;99.90;;;;;;5095666;28;20175;-58
2023/03/15 06:20:15;;;;;;;8.00;4.67;;;2.20;99.90;;;;;;5108981;28;20171;-59
2023/03/15 06:22:41;;;;;;;9.40;3.90;;;2.10;99.90;;;;;;5088973;28;20167;-58
2023/03/15 06:25:09;;;;;;;7.90;4.20;;;2.20;99.90;;;;;;5114733;28;20627;-56
2023/03/15 06:27:35;;;;;;;10.93;4.57;;;2.10;99.90;;;;;;5096922;28;20583;-59
2023/03/15 06:30:01;;;;;;;10.23;5.10;;;2.00;99.90;;;;;;5096235;28;20202;-57
2023/03/15 06:32:26;;;;;;;6.50;4.43;;;1.90;99.90;;;;;;5096671;28;20195;-59
2023/03/15 06:34:52;;;;;;;11.87;5.70;;;1.90;99.90;;;;;;5096562;28;20186;-58
2023/03/15 06:37:17;;;;;;;7.87;4.90;;;1.90;99.90;;;;;;5095634;28;20171;-58
2023/03/15 06:39:43;;;;;;;11.27;4.70;;;1.90;99.90;;;;;;5097284;28;20759;-58
2023/03/15 06:42:12;;;;;;;9.03;4.90;;;2.00;99.90;;;;;;5097473;28;20185;-61
2023/03/15 06:44:39;;;;;;;5.40;4.40;;;2.00;99.90;;;;;;5113654;28;20195;-59
2023/03/15 06:47:04;;;;;;;12.10;5.07;;;1.90;99.90;;;;;;5096790;28;20203;-58
2023/03/15 06:49:30;;;;;;;7.83;5.60;;;1.90;99.90;;;;;;5094948;28;20218;-59
2023/03/15 06:51:56;;;;;;;10.03;5.60;;;1.90;99.90;;;;;;5095015;28;20167;-58
2023/03/15 06:54:22;;;;;;;12.27;5.43;;;1.90;99.90;;;;;;5095532;28;20171;-59
2023/03/15 06:56:48;;;;;;;7.97;5.40;;;1.80;99.90;;;;;;5094414;28;20233;-59
2023/03/15 06:59:13;;;;;;;12.17;5.20;;;1.90;99.90;;;;;;5094712;28;20178;-56
2023/03/15 07:01:39;;;;;;;11.50;5.40;;;1.90;99.90;;;;;;5111879;28;20224;-58
2023/03/15 07:04:05;;;;;;;6.37;5.10;;;2.00;99.90;;;;;;5094954;28;20234;-58
2023/03/15 07:06:30;;;;;;;11.53;6.10;;;2.00;99.90;;;;;;5095146;28;20208;-58
2023/03/15 07:08:56;;;;;;;13.70;6.47;;;2.10;99.90;;;;;;5094022;28;20172;-60
2023/03/15 07:11:22;;;;;;;13.77;6.40;;;2.10;99.90;;;;;;5095029;28;20167;-58
2023/03/15 07:13:47;;;;;;;11.97;6.17;;;2.10;99.90;;;;;;5096311;28;20316;-58
2023/03/15 07:16:13;;;;;;;7.47;6.10;;;2.20;99.90;;;;;;5095933;28;20178;-59
2023/03/15 07:18:38;;;;;;;13.40;6.27;;;2.20;99.90;;;;;;5095310;28;20175;-59
2023/03/15 07:21:06;;;;;;;9.20;5.73;;;2.20;99.90;;;;;;5095724;28;20656;-58
2023/03/15 07:23:32;;;;;;;11.83;6.57;;;2.20;99.90;;;;;;5095100;28;20195;-58
2023/03/15 07:25:58;;;;;;;8.33;5.93;;;2.30;99.90;;;;;;5111169;28;20529;-57
2023/03/15 07:28:25;;;;;;;8.57;6.30;;;2.30;99.90;;;;;;5094458;28;20558;-58
2023/03/15 07:30:54;;;;;;;14.90;5.77;;;2.30;99.90;;;;;;5112019;28;20331;-58
2023/03/15 07:33:23;;;;;;;8.67;4.73;;;2.40;99.90;;;;;;5090862;28;20729;-56
2023/03/15 07:35:50;;;;;;;11.73;3.83;;;2.40;99.90;;;;;;5090104;28;20188;-56
2023/03/15 07:38:16;;;;;;;7.90;3.90;;;2.40;99.90;;;;;;5089832;28;20587;-57
2023/03/15 07:40:41;;;;;;;5.40;2.93;;;2.30;99.90;;;;;;5089971;28;20163;-56
2023/03/15 07:43:07;;;;;;;6.43;3.47;;;2.30;99.90;;;;;;5107384;28;20217;-57
2023/03/15 07:45:33;;;;;;;4.63;2.70;;;2.20;99.90;;;;;;5091210;28;20732;-56
2023/03/15 07:47:59;;;;;;;5.00;2.43;;;2.20;99.90;;;;;;5091832;28;20242;-57
2023/03/15 07:50:25;;;;;;;12.53;2.43;;;2.20;99.90;;;;;;5109803;28;20209;-53
2023/03/15 07:52:51;;;;;;;8.77;2.40;;;2.20;99.90;;;;;;5109070;28;20262;-60
2023/03/15 07:55:17;;;;;;;3.53;2.07;;;2.10;99.90;;;;;;5107360;28;20422;-57
2023/03/15 07:57:42;;;;;;;3.53;1.70;;;2.10;99.90;;;;;;5090505;28;20175;-57
2023/03/15 08:00:10;;;;;;;2.30;1.93;;;2.10;99.90;;;;;;5110764;28;20164;-58
2023/03/15 08:02:36;;;;;;;3.67;2.10;;;2.20;99.90;;;;;;5092297;28;20241;-57
2023/03/15 08:05:03;;;;;;;3.30;2.13;;;2.20;99.90;;;;;;5090668;28;20218;-57
2023/03/15 08:07:29;;;;;;;4.87;1.70;;;2.30;99.90;;;;;;5090039;28;20165;-57
2023/03/15 08:09:56;;;;;;;2.83;1.40;;;2.30;99.90;;;;;;5091334;28;20167;-57
2023/03/15 08:12:22;;;;;;;3.67;1.67;;;2.40;99.90;;;;;;5089875;28;20224;-58
2023/03/15 08:14:48;;;;;;;2.57;2.07;;;2.40;99.90;;;;;;5088342;28;20167;-57
2023/03/15 08:17:15;;;;;;;5.43;2.20;;;2.40;99.90;;;;;;5106816;28;20167;-58
2023/03/15 08:19:40;;;;;;;3.00;1.93;;;2.50;99.90;;;;;;5088969;28;20809;-57
2023/03/15 08:22:06;;;;;;;4.70;2.27;;;2.50;99.90;;;;;;5106104;28;20172;-58
2023/03/15 08:24:32;;;;;;;7.23;2.50;;;2.40;99.90;;;;;;5106253;28;20195;-58
2023/03/15 08:26:57;;;;;;;3.80;2.20;;;2.50;99.90;;;;;;5106821;28;20228;-57
2023/03/15 08:29:23;;;;;;;5.50;2.50;;;2.60;99.90;;;;;;5107471;28;20170;-59
2023/03/15 08:31:49;;;;;;;1.97;1.53;;;2.60;99.90;;;;;;5107209;28;20167;-59
2023/03/15 08:34:15;;;;;;;3.27;1.43;;;2.50;99.90;;;;;;5108008;28;20168;-59
2023/03/15 08:36:41;;;;;;;5.17;1.63;;;2.60;99.90;;;;;;5107423;28;20665;-57
2023/03/15 08:39:07;;;;;;;3.80;1.30;;;2.60;99.90;;;;;;5108439;28;20236;-58
2023/03/15 08:41:33;;;;;;;3.23;1.80;;;2.70;99.90;;;;;;5089249;28;20172;-57
2023/03/15 08:43:59;;;;;;;2.83;1.43;;;2.70;99.90;;;;;;5105640;28;20180;-59
2023/03/15 08:46:26;;;;;;;2.87;1.67;;;2.70;99.90;;;;;;5085102;28;20171;-59
2023/03/15 08:48:52;;;;;;;3.47;2.07;;;2.70;99.90;;;;;;5084988;28;20163;-57
2023/03/15 08:51:18;;;;;;;5.83;1.63;;;2.80;99.90;;;;;;5085918;28;20182;-57
2023/03/15 08:53:44;;;;;;;4.57;1.43;;;2.80;99.90;;;;;;5100879;28;20213;-57
2023/03/15 08:56:10;;;;;;;3.50;1.60;;;2.80;99.90;;;;;;5084048;28;20585;-58
2023/03/15 08:58:35;;;;;;;7.80;2.20;;;2.80;99.90;;;;;;5100633;28;20156;-59
2023/03/15 09:01:01;;;;;;;3.10;1.83;;;2.80;99.90;;;;;;5084805;28;20262;-59
2023/03/15 09:03:27;;;;;;;6.20;1.33;;;2.90;99.90;;;;;;5107295;28;20519;-58
2023/03/15 09:05:57;;;;;;;3.03;1.80;;;2.90;99.90;;;;;;5091793;28;20207;-58
2023/03/15 09:08:24;;;;;;;3.10;1.97;;;3.00;99.90;;;;;;5088096;28;20179;-59
2023/03/15 09:10:55;;;;;;;4.33;1.53;;;3.10;99.90;;;;;;5103900;28;20183;-58
2023/03/15 09:13:22;;;;;;;4.03;2.20;;;3.20;99.90;;;;;;5106300;28;20784;-58
2023/03/15 09:15:54;;;;;;;5.23;1.70;;;3.30;99.90;;;;;;5107122;28;20250;-58
2023/03/15 09:18:20;;;;;;;5.87;2.47;;;3.30;99.90;;;;;;5105956;28;20177;-59
2023/03/15 09:20:46;;;;;;;3.87;1.30;;;3.30;99.90;;;;;;5087393;28;20175;-60
2023/03/15 09:23:12;;;;;;;5.70;1.80;;;3.30;99.90;;;;;;5085385;28;20392;-61
2023/03/15 09:25:38;;;;;;;2.33;1.17;;;3.20;99.90;;;;;;5086891;28;20206;-59
2023/03/15 09:28:05;;;;;;;5.20;1.03;;;3.10;99.90;;;;;;5108017;28;20164;-59
2023/03/15 09:30:31;;;;;;;4.60;1.00;;;2.90;99.90;;;;;;5109266;28;20185;-59
2023/03/15 09:32:57;;;;;;;2.87;1.00;;;2.80;99.90;;;;;;5106715;28;20175;-58
2023/03/15 09:35:23;;;;;;;0.70;0.50;;;2.70;99.90;;;;;;5108365;28;20318;-59
2023/03/15 09:37:49;;;;;;;1.03;0.87;;;2.70;99.90;;;;;;5125536;27;20664;-58
2023/03/15 09:40:25;;;;;;;3.10;1.07;;;2.70;99.90;;;;;;5124957;27;20287;-59
2023/03/15 09:43:06;;;;;;;1.13;0.83;;;2.70;99.90;;;;;;5106710;28;20196;-59
2023/03/15 09:46:01;;;;;;;2.60;0.90;;;2.60;99.90;;;;;;5122974;27;20287;-58
2023/03/15 09:48:51;;;;;;;2.93;1.00;;;2.70;99.90;;;;;;5126630;27;20175;-58
2023/03/15 09:51:35;;;;;;;6.30;1.33;;;2.80;99.90;;;;;;5123258;27;20195;-57
2023/03/15 09:54:06;;;;;;;2.00;0.73;;;2.80;99.90;;;;;;5123740;27;20160;-59
2023/03/15 09:56:37;;;;;;;4.00;1.30;;;2.80;99.90;;;;;;5123115;27;20159;-58
2023/03/15 09:59:04;;;;;;;5.10;1.23;;;2.90;99.90;;;;;;5120431;27;20320;-58
2023/03/15 10:01:41;;;;;;;2.00;0.97;;;3.00;99.90;;;;;;5119063;27;20648;-58
2023/03/15 10:04:24;;;;;;;2.10;0.90;;;3.10;99.90;;;;;;5083894;28;20223;-58
2023/03/15 10:06:55;;;;;;;3.47;1.00;;;3.20;99.90;;;;;;5116830;27;20167;-59
2023/03/15 10:09:23;;;;;;;5.50;1.37;;;3.30;99.90;;;;;;5102398;28;20229;-59
2023/03/15 10:12:03;;;;;;;6.13;1.33;;;3.30;99.90;;;;;;5122036;27;20163;-59
2023/03/15 10:14:46;;;;;;;8.93;1.30;;;3.30;99.90;;;;;;5122698;27;20167;-56
2023/03/15 10:17:15;;;;;;;4.63;0.90;;;3.30;99.90;;;;;;5123772;27;20171;-59
2023/03/15 10:19:53;;;;;;;4.53;1.23;;;3.20;99.90;;;;;;5123151;27;20199;-58
2023/03/15 10:22:26;;;;;;;17.07;2.60;;;3.10;99.90;;;;;;5124073;27;20210;-60
2023/03/15 10:25:19;;;;;;;11.33;1.40;;;3.10;99.90;;;;;;5124294;27;20199;-60
2023/03/15 10:27:49;;;;;;;5.17;1.43;;;3.10;99.90;;;;;;5108936;28;20217;-59
2023/03/15 10:30:17;;;;;;;3.97;1.40;;;3.10;99.90;;;;;;5109007;28;20266;-60
2023/03/15 10:32:46;;;;;;;5.17;1.07;;;3.10;99.90;;;;;;5124780;27;20163;-60
2023/03/15 10:35:17;;;;;;;2.80;1.23;;;3.10;99.90;;;;;;5110875;28;20171;-57
2023/03/15 10:37:43;;;;;;;5.77;1.67;;;3.10;99.90;;;;;;5093835;28;20175;-59
2023/03/15 10:40:14;;;;;;;3.90;1.30;;;3.20;99.90;;;;;;5127141;27;20472;-57
2023/03/15 10:42:43;;;;;;;5.10;1.70;;;3.30;99.90;;;;;;5127199;27;20170;-58
2023/03/15 10:45:24;;;;;;;9.67;1.70;;;3.40;99.90;;;;;;5124807;27;20234;-60
2023/03/15 10:47:51;;;;;;;5.37;1.87;;;3.60;99.90;;;;;;5108808;28;20170;-62
2023/03/15 10:50:30;;;;;;;3.37;1.23;;;3.80;99.90;;;;;;5123658;27;20317;-62
2023/03/15 10:53:00;;;;;;;2.13;1.27;;;4.00;99.90;;;;;;5124015;27;20167;-62
2023/03/15 10:55:42;;;;;;;5.73;1.90;;;4.20;99.90;;;;;;5123803;27;20172;-62
2023/03/15 10:58:16;;;;;;;5.90;1.07;;;4.30;99.90;;;;;;5085761;28;20182;-61
2023/03/15 11:00:51;;;;;;;2.60;1.13;;;4.30;99.90;;;;;;5122126;27;20171;-62
2023/03/15 11:03:22;;;;;;;4.07;0.77;;;4.30;99.90;;;;;;5051552;28;20234;-61
2023/03/15 11:05:52;;;;;;;2.33;0.67;;;4.20;99.90;;;;;;5121115;27;20526;-61
2023/03/15 11:08:21;;;;;;;2.00;0.83;;;4.20;99.90;;;;;;5087327;28;20168;-62
2023/03/15 11:10:58;;;;;;;4.73;0.80;;;4.40;99.90;;;;;;5120261;27;20234;-62
2023/03/15 11:13:26;;;;;;;2.23;0.80;;;4.50;99.90;;;;;;5085871;28;20175;-59
2023/03/15 11:16:11;;;;;;;2.97;0.77;;;4.60;99.90;;;;;;5086678;28;20183;-59
2023/03/15 11:18:44;;;;;;;3.40;0.73;;;4.70;99.90;;;;;;5087232;28;20210;-59
2023/03/15 11:21:29;;;;;;;1.40;0.80;;;4.80;99.90;;;;;;5102576;28;20187;-59
2023/03/15 11:23:57;;;;;;;4.57;0.80;;;5.00;99.90;;;;;;5086262;28;20195;-59
2023/03/15 11:26:25;;;;;;;1.67;0.80;;;5.00;99.90;;;;;;5085790;28;20168;-58
2023/03/15 11:28:57;;;;;;;2.10;0.60;;;5.10;99.90;;;;;;5119979;27;20168;-59
2023/03/15 11:31:26;;;;;;;1.77;0.70;;;5.20;99.90;;;;;;5086806;28;20790;-58
2023/03/15 11:34:01;;;;;;;5.60;0.77;;;5.20;99.90;;;;;;5101293;28;20176;-58
2023/03/15 11:36:32;;;;;;;1.13;0.70;;;5.20;99.90;;;;;;5086408;28;20178;-58
2023/03/15 11:39:00;;;;;;;12.90;2.10;;;5.30;99.90;;;;;;5085507;28;20175;-58
2023/03/15 11:41:53;;;;;;;4.83;1.23;;;5.30;99.90;;;;;;5083216;28;20168;-57
2023/03/15 11:44:46;;;;;;;4.00;1.23;;;5.30;99.90;;;;;;5082457;28;20349;-56
2023/03/15 11:47:32;;;;;;;5.57;1.50;;;5.20;99.90;;;;;;5117573;27;20172;-58
2023/03/15 11:49:58;;;;;;;6.13;1.20;;;5.20;99.90;;;;;;5082073;28;20190;-59
2023/03/15 11:52:26;;;;;;;3.97;0.90;;;5.20;99.90;;;;;;5114390;27;20199;-57
2023/03/15 11:54:56;;;;;;;7.33;1.20;;;5.10;99.90;;;;;;5097549;28;20218;-57
2023/03/15 11:57:28;;;;;;;2.33;0.70;;;5.00;99.90;;;;;;5118175;27;20730;-58
2023/03/15 11:59:55;;;;;;;3.60;0.93;;;4.90;99.90;;;;;;5083716;28;20664;-60
2023/03/15 12:02:25;;;;;;;6.63;0.63;;;4.70;99.90;;;;;;5081696;28;20168;-57
2023/03/15 12:04:53;;;;;;;1.93;0.80;;;4.60;99.90;;;;;;5099456;28;20209;-58
2023/03/15 12:07:18;;;;;;;2.50;0.80;;;4.50;99.90;;;;;;5102309;28;20550;-58
2023/03/15 12:10:02;;;;;;;4.13;1.03;;;4.40;99.90;;;;;;5115096;27;20170;-58
2023/03/15 12:12:31;;;;;;;3.47;0.70;;;4.40;99.90;;;;;;5115708;27;20179;-57
2023/03/15 12:15:18;;;;;;;1.90;0.70;;;4.30;99.90;;;;;;5116102;27;20171;-58
2023/03/15 12:17:49;;;;;;;4.20;0.73;;;4.30;99.90;;;;;;5102239;28;20185;-58
2023/03/15 12:20:41;;;;;;;7.73;1.50;;;4.30;99.90;;;;;;5118501;27;20186;-56
2023/03/15 12:23:35;;;;;;;2.20;0.87;;;4.40;99.90;;;;;;5084585;28;20580;-57
2023/03/15 12:26:09;;;;;;;1.47;0.77;;;4.40;99.90;;;;;;5119911;27;20207;-57
2023/03/15 12:29:00;;;;;;;3.10;0.90;;;4.70;99.90;;;;;;5122923;27;20178;-58
2023/03/15 12:31:41;;;;;;;2.77;0.90;;;5.10;99.90;;;;;;5120885;27;20175;-58
2023/03/15 12:34:14;;;;;;;4.13;1.00;;;5.50;99.90;;;;;;5119552;27;20163;-58
2023/03/15 12:36:47;;;;;;;5.33;1.70;;;5.80;99.90;;;;;;5105910;28;20552;-58
2023/03/15 12:39:15;;;;;;;4.63;1.07;;;5.90;99.90;;;;;;5109034;28;20529;-58
2023/03/15 12:41:45;;;;;;;4.87;1.07;;;6.00;99.90;;;;;;5126267;27;20769;-58
2023/03/15 12:44:22;;;;;;;2.67;1.03;;;6.00;99.90;;;;;;5106588;28;20211;-57
2023/03/15 12:46:48;;;;;;;3.93;1.33;;;5.80;99.90;;;;;;5120168;27;20175;-55
2023/03/15 12:49:34;;;;;;;5.40;1.40;;;5.80;99.90;;;;;;5102050;28;20170;-56
2023/03/15 12:52:17;;;;;;;5.53;1.30;;;5.60;99.90;;;;;;5087167;28;20671;-57
2023/03/15 12:54:52;;;;;;;8.00;1.00;;;5.60;99.90;;;;;;5122848;27;20182;-57
2023/03/15 12:57:34;;;;;;;4.00;1.60;;;5.80;99.90;;;;;;5071964;28;20178;-56
2023/03/15 13:00:10;;;;;;;6.80;1.07;;;6.20;99.90;;;;;;5124988;27;20186;-57
2023/03/15 13:03:18;;;;;;;6.60;1.20;;;6.50;99.90;;;;;;5109286;28;20175;-58
2023/03/15 13:06:03;;;;;;;7.30;1.40;;;6.80;99.90;;;;;;5089236;28;20215;-59